Time;durP1;ratioP1;P1;durP2;ratioP2;P2;SDS_P1;SDS_P2;PMS_P1;PMS_P2;Temp;Humidity;BMP_temperature;BMP_pressure;BME280_temperature;BME280_humidity;BME280_pressure;Samples;Min_cycle;Max_cycle;Signal;HPM_P1;HPM_P2
2022/03/26 00:01:36;;;;;;;10.65;4.13;;;;;;;6.35;60.17;98504.72;5025936;28;20053;-50
2022/03/26 00:04:02;;;;;;;6.53;3.80;;;;;;;6.35;60.29;98494.41;5018868;28;20054;-54
2022/03/26 00:06:28;;;;;;;6.22;4.03;;;;;;;6.34;60.16;98487.53;5030996;28;20067;-53
2022/03/26 00:08:54;;;;;;;8.23;4.95;;;;;;;6.33;60.11;98468.63;5032476;28;20506;-52
2022/03/26 00:11:20;;;;;;;9.18;4.63;;;;;;;6.31;59.95;98465.28;5030110;28;20045;-57
2022/03/26 00:13:46;;;;;;;5.30;3.47;;;;;;;6.33;60.33;98467.81;5011751;28;20425;-52
2022/03/26 00:16:11;;;;;;;10.20;4.22;;;;;;;6.21;60.51;98443.28;5031474;28;20652;-52
2022/03/26 00:18:38;;;;;;;8.15;4.03;;;;;;;6.22;60.51;98441.56;5031500;28;20103;-53
2022/03/26 00:21:04;;;;;;;4.53;3.10;;;;;;;6.30;60.64;98440.38;5031598;28;20048;-52
2022/03/26 00:23:30;;;;;;;6.53;2.95;;;;;;;6.29;60.57;98436.09;5031089;28;20038;-54
2022/03/26 00:25:58;;;;;;;8.50;4.07;;;;;;;6.30;60.05;98430.03;5031978;28;20053;-55
2022/03/26 00:28:24;;;;;;;13.80;4.68;;;;;;;6.30;60.38;98418.88;5030627;28;20045;-52
2022/03/26 00:30:52;;;;;;;8.25;4.40;;;;;;;6.31;60.26;98410.25;5030842;28;20045;-53
2022/03/26 00:33:18;;;;;;;10.48;4.35;;;;;;;6.32;59.91;98409.34;5029089;28;20041;-52
2022/03/26 00:35:44;;;;;;;9.63;4.30;;;;;;;6.32;60.28;98389.53;5031545;28;20064;-54
2022/03/26 00:38:09;;;;;;;10.35;5.00;;;;;;;6.32;60.14;98399.88;5031806;28;20133;-52
2022/03/26 00:40:36;;;;;;;8.88;4.30;;;;;;;6.27;59.73;98370.81;5031373;28;20068;-50
2022/03/26 00:43:02;;;;;;;9.85;5.25;;;;;;;6.35;59.54;98386.84;5020219;28;20041;-54
2022/03/26 00:45:29;;;;;;;7.88;3.63;;;;;;;6.17;59.79;98335.09;5031272;28;20055;-53
2022/03/26 00:47:56;;;;;;;6.88;3.25;;;;;;;6.40;59.30;98347.94;5029638;28;20041;-54
2022/03/26 00:50:23;;;;;;;9.07;4.72;;;;;;;6.41;59.69;98341.88;5027579;28;20052;-51
2022/03/26 00:52:49;;;;;;;9.55;4.93;;;;;;;6.50;59.33;98330.34;5029709;28;20041;-56
2022/03/26 00:55:15;;;;;;;7.78;3.67;;;;;;;6.50;58.92;98312.28;5013770;28;20034;-51
2022/03/26 00:57:41;;;;;;;7.32;3.67;;;;;;;6.55;58.84;98318.09;5059502;28;20087;-51
2022/03/26 01:00:08;;;;;;;7.20;3.95;;;;;;;6.66;58.65;98321.09;5028877;28;20080;-49
2022/03/26 01:02:34;;;;;;;4.90;3.58;;;;;;;6.69;58.53;98308.06;5028147;28;20052;-52
2022/03/26 01:05:00;;;;;;;9.15;4.22;;;;;;;6.74;58.11;98295.81;5030852;28;20033;-52
2022/03/26 01:07:26;;;;;;;9.98;3.95;;;;;;;6.70;58.14;98279.56;5028382;28;20052;-56
2022/03/26 01:09:55;;;;;;;11.63;4.55;;;;;;;6.85;57.93;98295.34;5029706;28;20038;-55
2022/03/26 01:12:22;;;;;;;8.18;3.70;;;;;;;6.86;57.36;98295.28;5031223;28;20033;-53
2022/03/26 01:14:49;;;;;;;9.68;4.03;;;;;;;6.86;57.34;98286.69;5030847;28;20041;-55
2022/03/26 01:17:15;;;;;;;9.07;4.68;;;;;;;6.89;56.91;98277.09;5029104;28;20048;-54
2022/03/26 01:19:41;;;;;;;8.82;3.92;;;;;;;6.91;57.33;98270.09;5020495;28;20038;-55
2022/03/26 01:22:07;;;;;;;11.75;5.53;;;;;;;6.94;56.64;98256.22;5030723;28;20061;-54
2022/03/26 01:24:33;;;;;;;9.13;4.20;;;;;;;6.93;56.74;98263.13;5030724;28;20041;-54
2022/03/26 01:26:59;;;;;;;11.27;4.07;;;;;;;6.95;56.40;98257.91;5019816;28;20428;-55
2022/03/26 01:29:25;;;;;;;7.68;3.83;;;;;;;6.79;56.72;98217.22;5020353;28;20037;-54
2022/03/26 01:31:51;;;;;;;9.85;4.82;;;;;;;6.99;56.25;98228.44;5028142;28;20433;-53
2022/03/26 01:34:17;;;;;;;13.20;5.35;;;;;;;6.99;56.70;98218.09;5013861;28;20053;-53
2022/03/26 01:36:43;;;;;;;12.00;4.82;;;;;;;7.05;56.55;98217.84;5050240;28;20045;-50
2022/03/26 01:39:09;;;;;;;11.98;5.50;;;;;;;7.04;56.62;98208.41;5024999;28;20037;-52
2022/03/26 01:41:35;;;;;;;9.70;4.55;;;;;;;7.05;56.06;98197.19;5029869;28;20064;-54
2022/03/26 01:44:01;;;;;;;11.30;5.22;;;;;;;6.93;55.99;98177.03;5028912;28;20085;-52
2022/03/26 01:46:27;;;;;;;8.63;4.07;;;;;;;7.04;55.94;98182.56;5024041;28;20049;-52
2022/03/26 01:48:53;;;;;;;10.05;4.03;;;;;;;7.06;55.75;98185.94;5029060;28;20124;-52
2022/03/26 01:51:19;;;;;;;7.25;4.22;;;;;;;7.05;55.85;98171.34;5029907;28;20052;-53
2022/03/26 01:53:51;;;;;;;7.55;4.50;;;;;;;7.10;55.41;98177.13;5030210;28;20040;-53
2022/03/26 01:56:18;;;;;;;11.07;4.78;;;;;;;7.08;55.56;98166.88;5030266;28;20505;-54
2022/03/26 01:58:44;;;;;;;6.93;3.70;;;;;;;7.04;55.27;98160.16;5030581;28;20065;-52
2022/03/26 02:01:10;;;;;;;8.45;4.60;;;;;;;7.01;55.34;98136.22;5027014;28;20084;-52
2022/03/26 02:03:36;;;;;;;10.98;4.93;;;;;;;7.13;54.95;98136.50;5029030;28;20041;-52
2022/03/26 02:06:03;;;;;;;6.68;3.63;;;;;;;7.19;54.57;98141.38;5030503;28;20528;-53
2022/03/26 02:08:29;;;;;;;10.75;3.40;;;;;;;7.17;54.24;98130.25;5030470;28;20083;-53
2022/03/26 02:10:55;;;;;;;13.05;4.97;;;;;;;7.05;54.56;98130.00;5030913;28;20045;-54
2022/03/26 02:13:21;;;;;;;9.48;4.57;;;;;;;7.09;54.75;98127.19;5024331;28;20091;-55
2022/03/26 02:15:48;;;;;;;7.93;4.00;;;;;;;6.87;54.60;98095.47;5030064;28;20067;-50
2022/03/26 02:18:14;;;;;;;9.27;4.68;;;;;;;7.11;54.75;98120.22;5007311;28;20406;-54
2022/03/26 02:20:40;;;;;;;7.07;3.88;;;;;;;7.10;54.29;98115.97;5013950;28;20128;-53
2022/03/26 02:23:05;;;;;;;10.43;5.05;;;;;;;7.08;54.45;98114.34;5028671;28;20047;-55
2022/03/26 02:25:31;;;;;;;9.60;4.65;;;;;;;7.06;54.13;98101.53;5023685;28;20065;-52
2022/03/26 02:27:57;;;;;;;12.07;4.90;;;;;;;7.01;54.60;98087.13;5030248;28;20037;-53
2022/03/26 02:30:23;;;;;;;8.27;4.93;;;;;;;7.13;54.01;98107.22;5029260;28;20570;-50
2022/03/26 02:32:48;;;;;;;10.35;4.22;;;;;;;7.07;53.79;98095.41;5011565;28;20132;-54
2022/03/26 02:35:14;;;;;;;9.38;4.05;;;;;;;7.09;53.68;98091.03;5028386;28;20045;-54
2022/03/26 02:37:40;;;;;;;9.18;4.38;;;;;;;7.01;53.94;98087.97;5030082;28;20398;-54
2022/03/26 02:40:07;;;;;;;6.80;3.97;;;;;;;6.93;53.85;98082.28;5011496;28;20111;-54
2022/03/26 02:42:34;;;;;;;7.28;3.88;;;;;;;6.77;54.88;98045.16;5027618;28;20415;-57
2022/03/26 02:45:01;;;;;;;6.95;4.53;;;;;;;6.77;54.95;98043.41;5027713;28;20045;-54
2022/03/26 02:47:26;;;;;;;8.32;3.67;;;;;;;6.81;54.80;98047.53;5028306;28;20056;-53
2022/03/26 02:49:52;;;;;;;8.93;4.20;;;;;;;6.82;55.26;98049.19;5010472;28;20049;-52
2022/03/26 02:52:18;;;;;;;8.05;3.40;;;;;;;6.77;54.54;98045.16;5021067;28;20091;-50
2022/03/26 02:54:44;;;;;;;7.90;3.80;;;;;;;6.72;54.72;98023.88;5030419;28;20124;-55
2022/03/26 02:57:10;;;;;;;8.00;4.38;;;;;;;6.72;55.27;98009.22;5028039;28;20527;-55
2022/03/26 02:59:36;;;;;;;11.18;4.30;;;;;;;6.78;55.66;98016.69;5032981;28;20530;-50
2022/03/26 03:02:02;;;;;;;12.75;4.78;;;;;;;6.67;56.16;97979.34;5033052;28;20045;-52
2022/03/26 03:04:27;;;;;;;9.98;4.88;;;;;;;6.63;56.91;97978.66;5032268;28;20179;-54
2022/03/26 03:06:53;;;;;;;10.15;4.35;;;;;;;6.64;57.79;97989.81;5033261;28;20037;-50
2022/03/26 03:09:20;;;;;;;10.05;4.57;;;;;;;6.64;57.96;98007.91;5028189;28;20054;-50
2022/03/26 03:11:46;;;;;;;7.28;3.75;;;;;;;6.62;58.52;98004.53;5033509;28;20052;-57
2022/03/26 03:14:12;;;;;;;11.10;5.30;;;;;;;6.58;59.03;97990.09;5031883;28;20053;-52
2022/03/26 03:16:38;;;;;;;13.10;5.10;;;;;;;6.53;59.71;97985.16;5024995;28;20037;-54
2022/03/26 03:19:04;;;;;;;9.38;4.30;;;;;;;6.39;60.30;97935.88;5022738;28;20049;-51
2022/03/26 03:21:30;;;;;;;9.85;4.35;;;;;;;6.48;59.98;97968.19;5029805;28;20109;-55
2022/03/26 03:23:56;;;;;;;11.25;5.88;;;;;;;6.46;59.58;97946.75;5023195;28;20084;-55
2022/03/26 03:26:21;;;;;;;10.85;5.18;;;;;;;6.44;60.11;97969.25;5028511;28;20414;-54
2022/03/26 03:28:47;;;;;;;10.43;5.03;;;;;;;6.38;60.23;97955.66;5012616;28;20152;-51
2022/03/26 03:31:13;;;;;;;11.52;5.28;;;;;;;6.37;60.27;97940.28;5015499;28;20069;-54
2022/03/26 03:33:39;;;;;;;8.38;4.47;;;;;;;6.36;59.51;97933.44;5015620;28;20033;-56
2022/03/26 03:36:05;;;;;;;12.57;4.72;;;;;;;6.37;59.96;97906.72;5022000;28;20049;-54
2022/03/26 03:38:32;;;;;;;11.15;6.15;;;;;;;6.34;59.47;97896.53;5014468;28;20136;-54
2022/03/26 03:40:58;;;;;;;9.43;5.82;;;;;;;6.51;59.53;97919.81;5019091;28;20045;-53
2022/03/26 03:43:24;;;;;;;7.72;3.90;;;;;;;6.45;58.73;97896.88;5041190;28;20046;-53
2022/03/26 03:45:50;;;;;;;8.18;4.07;;;;;;;6.49;58.50;97913.88;5031212;28;20111;-53
2022/03/26 03:48:16;;;;;;;9.23;5.22;;;;;;;6.47;58.86;97909.72;5062006;28;20045;-54
2022/03/26 03:50:42;;;;;;;11.57;6.03;;;;;;;6.39;58.67;97887.66;5029371;28;20111;-55
2022/03/26 03:53:08;;;;;;;9.90;4.75;;;;;;;6.52;58.30;97900.84;5032053;28;20037;-55
2022/03/26 03:55:34;;;;;;;10.10;5.60;;;;;;;6.53;57.97;97896.53;5032845;28;20398;-52
2022/03/26 03:57:59;;;;;;;12.23;6.18;;;;;;;6.56;57.66;97897.22;5029629;28;20053;-51
2022/03/26 04:00:25;;;;;;;10.20;4.38;;;;;;;6.61;57.25;97890.09;5028232;28;20435;-53
2022/03/26 04:02:53;;;;;;;11.48;4.47;;;;;;;6.62;57.05;97888.34;5032003;28;20041;-51
2022/03/26 04:05:19;;;;;;;11.43;4.50;;;;;;;6.62;56.93;97871.13;5030163;28;20064;-50
2022/03/26 04:07:45;;;;;;;9.70;4.43;;;;;;;6.67;56.75;97868.31;5028387;28;20069;-51
2022/03/26 04:10:10;;;;;;;11.05;5.00;;;;;;;6.70;56.44;97878.47;5027924;28;20052;-52
2022/03/26 04:12:38;;;;;;;8.15;4.72;;;;;;;6.66;56.83;97853.72;5029732;28;20536;-52
2022/03/26 04:15:08;;;;;;;10.95;5.88;;;;;;;6.59;56.46;97842.03;5031077;28;20509;-53
2022/03/26 04:17:35;;;;;;;10.23;5.72;;;;;;;6.72;55.96;97854.28;5031675;28;20073;-50
2022/03/26 04:20:08;;;;;;;10.65;4.93;;;;;;;6.70;55.73;97840.59;5020766;28;20417;-54
2022/03/26 04:22:37;;;;;;;10.13;5.40;;;;;;;6.65;56.03;97826.22;5022646;28;20488;-54
2022/03/26 04:25:04;;;;;;;9.93;4.93;;;;;;;6.66;56.04;97822.75;5032361;28;20131;-53
2022/03/26 04:27:30;;;;;;;11.65;5.63;;;;;;;6.67;56.29;97819.25;5030226;28;20041;-55
2022/03/26 04:29:56;;;;;;;9.93;5.57;;;;;;;6.70;56.11;97807.03;5030933;28;20447;-53
2022/03/26 04:32:22;;;;;;;8.77;4.18;;;;;;;6.72;56.04;97823.28;5031342;28;20074;-52
2022/03/26 04:34:48;;;;;;;9.55;5.78;;;;;;;6.72;56.13;97789.72;5030917;28;20045;-52
2022/03/26 04:37:14;;;;;;;8.02;4.40;;;;;;;6.76;55.44;97786.06;5031156;28;20044;-50
2022/03/26 04:39:39;;;;;;;7.57;4.70;;;;;;;6.77;55.48;97764.50;5030008;28;20091;-54
2022/03/26 04:42:06;;;;;;;9.38;4.10;;;;;;;6.74;56.05;97769.84;5031733;28;20069;-56
2022/03/26 04:44:31;;;;;;;10.63;4.15;;;;;;;6.76;55.49;97751.66;5027217;28;20056;-56
2022/03/26 04:46:57;;;;;;;10.50;5.60;;;;;;;6.77;55.50;97758.50;5030656;28;20041;-54
2022/03/26 04:49:23;;;;;;;7.82;4.55;;;;;;;6.86;55.88;97732.22;5030775;28;20041;-54
2022/03/26 04:51:49;;;;;;;10.23;5.15;;;;;;;6.85;55.15;97720.22;5034821;28;20076;-54
2022/03/26 04:54:15;;;;;;;13.07;3.60;;;;;;;6.88;55.37;97732.13;5029943;28;20442;-51
2022/03/26 04:56:41;;;;;;;15.45;6.00;;;;;;;6.91;55.47;97706.19;5025927;28;20041;-54
2022/03/26 04:59:07;;;;;;;11.32;5.65;;;;;;;6.98;55.04;97720.44;5022245;28;20064;-52
2022/03/26 05:01:32;;;;;;;6.85;3.88;;;;;;;6.97;55.04;97722.16;5010419;28;20057;-55
2022/03/26 05:03:58;;;;;;;9.00;3.95;;;;;;;7.04;55.21;97714.94;5014993;28;20053;-54
2022/03/26 05:06:24;;;;;;;13.27;5.60;;;;;;;7.05;55.04;97698.53;5028121;28;20466;-51
2022/03/26 05:08:50;;;;;;;9.10;4.88;;;;;;;7.08;55.05;97693.19;5017982;28;20038;-55
2022/03/26 05:11:16;;;;;;;11.75;5.45;;;;;;;7.08;54.88;97670.78;5011900;28;20053;-55
2022/03/26 05:13:41;;;;;;;16.50;5.43;;;;;;;7.24;54.38;97713.00;5046146;28;20041;-54
2022/03/26 05:16:07;;;;;;;15.80;4.90;;;;;;;7.22;54.11;97694.16;5025137;28;20044;-54
2022/03/26 05:18:35;;;;;;;10.30;5.57;;;;;;;7.26;54.09;97675.91;5029476;28;20218;-54
2022/03/26 05:21:01;;;;;;;13.05;5.30;;;;;;;7.09;54.15;97664.72;5013647;28;20124;-54
2022/03/26 05:23:27;;;;;;;12.77;5.43;;;;;;;7.26;54.22;97678.50;5031026;28;20552;-55
2022/03/26 05:25:53;;;;;;;13.23;5.32;;;;;;;7.32;53.85;97668.66;5028155;28;20072;-50
2022/03/26 05:28:19;;;;;;;13.35;5.45;;;;;;;7.38;53.77;97670.09;5029767;28;20222;-54
2022/03/26 05:30:51;;;;;;;11.20;5.38;;;;;;;7.42;53.84;97661.25;5012777;28;20177;-51
2022/03/26 05:33:17;;;;;;;10.50;5.45;;;;;;;7.26;53.70;97645.75;5011480;28;20034;-53
2022/03/26 05:35:43;;;;;;;11.27;5.38;;;;;;;7.40;54.40;97665.66;5010766;28;20060;-51
2022/03/26 05:38:09;;;;;;;7.20;4.22;;;;;;;7.19;54.60;97646.97;5013566;28;20501;-50
2022/03/26 05:40:34;;;;;;;10.05;4.00;;;;;;;7.19;54.59;97634.88;5031093;28;20052;-52
2022/03/26 05:43:00;;;;;;;11.73;4.90;;;;;;;7.25;54.84;97646.66;5031090;28;20068;-50
2022/03/26 05:45:26;;;;;;;9.52;4.80;;;;;;;7.23;54.91;97622.63;5017501;28;20042;-52
2022/03/26 05:47:56;;;;;;;15.27;5.90;;;;;;;7.26;55.55;97606.13;5028778;28;20037;-56
2022/03/26 05:50:22;;;;;;;12.73;5.25;;;;;;;7.24;54.98;97585.53;5011417;28;20065;-59
2022/03/26 05:52:49;;;;;;;10.35;5.25;;;;;;;7.36;54.67;97581.44;5009973;28;20595;-59
2022/03/26 05:55:16;;;;;;;7.72;4.32;;;;;;;7.38;55.29;97579.63;5021925;28;20107;-55
2022/03/26 05:57:42;;;;;;;7.20;4.10;;;;;;;7.42;54.65;97576.78;5031232;28;20067;-59
2022/03/26 06:00:09;;;;;;;6.35;4.00;;;;;;;7.49;54.75;97564.34;5031632;28;20061;-59
2022/03/26 06:02:35;;;;;;;11.50;4.93;;;;;;;7.53;54.25;97546.00;5026269;28;20049;-57
2022/03/26 06:05:01;;;;;;;8.55;5.53;;;;;;;7.52;54.39;97533.16;5012184;28;20041;-58
2022/03/26 06:07:28;;;;;;;11.70;5.70;;;;;;;7.51;53.78;97540.06;5040246;28;20501;-55
2022/03/26 06:09:54;;;;;;;10.90;5.07;;;;;;;7.50;53.84;97524.63;5025915;28;20046;-62
2022/03/26 06:12:20;;;;;;;12.40;5.97;;;;;;;7.40;54.15;97506.25;5029130;28;20048;-57
2022/03/26 06:14:46;;;;;;;12.40;6.40;;;;;;;7.58;53.83;97530.22;5027173;28;20104;-55
2022/03/26 06:17:12;;;;;;;10.75;5.03;;;;;;;7.51;54.01;97509.06;5029301;28;20571;-57
2022/03/26 06:19:38;;;;;;;15.98;6.05;;;;;;;7.57;54.08;97502.72;5030198;28;20044;-60
2022/03/26 06:22:04;;;;;;;9.85;4.65;;;;;;;7.66;53.76;97508.19;5045825;28;20042;-58
2022/03/26 06:24:30;;;;;;;9.57;5.60;;;;;;;7.71;53.79;97492.41;5030503;28;20041;-53
2022/03/26 06:26:56;;;;;;;13.45;5.05;;;;;;;7.73;53.46;97495.72;5030752;28;20041;-58
2022/03/26 06:29:22;;;;;;;11.02;5.13;;;;;;;7.68;53.78;97496.91;5033648;28;20041;-60
2022/03/26 06:31:48;;;;;;;14.55;5.85;;;;;;;7.68;53.90;97495.16;5024254;28;20521;-56
2022/03/26 06:34:13;;;;;;;12.55;4.93;;;;;;;7.57;54.05;97469.94;5034131;28;20059;-58
2022/03/26 06:36:39;;;;;;;11.90;5.38;;;;;;;7.59;53.66;97470.66;5035792;28;20045;-58
2022/03/26 06:39:06;;;;;;;11.43;5.30;;;;;;;7.35;54.11;97429.88;5032751;28;20072;-59
2022/03/26 06:41:33;;;;;;;12.68;6.22;;;;;;;7.57;54.08;97454.41;5047670;28;20038;-56
2022/03/26 06:43:59;;;;;;;13.65;5.65;;;;;;;7.56;54.23;97439.81;5027799;28;20512;-57
2022/03/26 06:46:24;;;;;;;11.73;6.10;;;;;;;7.61;53.93;97442.13;5033353;28;20046;-53
2022/03/26 06:48:50;;;;;;;9.75;4.53;;;;;;;7.57;53.33;97427.72;5036947;28;20040;-58
2022/03/26 06:51:16;;;;;;;14.48;5.45;;;;;;;7.54;53.99;97415.78;5038858;28;20536;-57
2022/03/26 06:53:41;;;;;;;11.13;5.65;;;;;;;7.54;53.90;97418.38;5039787;28;20080;-54
2022/03/26 06:56:08;;;;;;;10.77;5.10;;;;;;;7.60;53.86;97405.09;5038684;28;20072;-57
2022/03/26 06:58:34;;;;;;;11.52;5.95;;;;;;;7.67;53.96;97392.66;5047646;28;20040;-54
2022/03/26 07:01:00;;;;;;;15.02;6.40;;;;;;;7.73;53.62;97375.94;5029720;28;20049;-54
2022/03/26 07:03:26;;;;;;;8.63;4.82;;;;;;;7.75;53.28;97363.72;5019722;28;20034;-57
2022/03/26 07:05:52;;;;;;;10.43;5.65;;;;;;;7.73;53.92;97357.84;5009118;28;20050;-57
2022/03/26 07:08:18;;;;;;;9.82;5.20;;;;;;;7.63;54.23;97368.75;5023966;28;20045;-54
2022/03/26 07:10:45;;;;;;;12.95;6.28;;;;;;;7.62;54.13;97363.66;5032279;28;20045;-58
2022/03/26 07:13:12;;;;;;;12.10;6.30;;;;;;;7.62;54.12;97343.78;5031926;28;20041;-59
2022/03/26 07:15:38;;;;;;;10.75;5.85;;;;;;;7.59;54.50;97337.97;5033215;28;20532;-58
2022/03/26 07:18:03;;;;;;;11.43;5.85;;;;;;;7.59;54.46;97338.78;5033269;28;20041;-57
2022/03/26 07:20:30;;;;;;;10.82;5.47;;;;;;;7.59;54.97;97346.56;5028331;28;20089;-58
2022/03/26 07:22:55;;;;;;;13.27;5.53;;;;;;;7.47;54.94;97336.13;5014808;28;20065;-62
2022/03/26 07:25:21;;;;;;;13.68;6.05;;;;;;;7.47;55.17;97316.28;5027341;28;20045;-59
2022/03/26 07:27:47;;;;;;;10.90;5.97;;;;;;;7.44;55.77;97310.44;5015216;28;20041;-59
2022/03/26 07:30:13;;;;;;;12.93;5.85;;;;;;;7.37;56.45;97304.00;5031381;28;20112;-54
2022/03/26 07:32:39;;;;;;;11.02;6.38;;;;;;;7.30;56.35;97300.09;5055064;28;20556;-55
2022/03/26 07:35:06;;;;;;;11.85;4.95;;;;;;;7.27;57.26;97282.22;5032177;28;20079;-60
2022/03/26 07:37:31;;;;;;;8.82;4.82;;;;;;;7.22;56.31;97278.13;5031386;28;20406;-58
2022/03/26 07:39:57;;;;;;;10.68;5.97;;;;;;;7.24;56.41;97276.28;5027852;28;20064;-60
2022/03/26 07:42:23;;;;;;;14.25;6.03;;;;;;;7.26;56.62;97263.28;5030090;28;20076;-53
2022/03/26 07:44:50;;;;;;;9.48;5.53;;;;;;;7.25;56.81;97279.69;5033539;28;20055;-55
2022/03/26 07:47:16;;;;;;;8.93;5.43;;;;;;;7.24;57.38;97252.19;5031641;28;20041;-53
2022/03/26 07:49:42;;;;;;;14.65;5.53;;;;;;;7.21;57.29;97252.41;5028234;28;20049;-55
2022/03/26 07:52:08;;;;;;;15.23;6.30;;;;;;;7.15;58.31;97252.75;5032095;28;20566;-56
2022/03/26 07:54:34;;;;;;;11.20;4.07;;;;;;;6.92;60.13;97222.28;5031897;28;20058;-59
2022/03/26 07:57:00;;;;;;;10.68;5.47;;;;;;;6.91;61.84;97225.81;5030450;28;20508;-58
2022/03/26 07:59:25;;;;;;;11.88;5.20;;;;;;;6.82;62.78;97237.47;5030840;28;20057;-59
2022/03/26 08:01:51;;;;;;;10.15;5.70;;;;;;;6.71;64.39;97240.69;5014627;28;20056;-56
2022/03/26 08:04:17;;;;;;;10.38;5.95;;;;;;;6.48;66.93;97202.47;5029243;28;20041;-56
2022/03/26 08:06:42;;;;;;;16.55;5.65;;;;;;;6.27;69.05;97194.22;5032012;28;20167;-55
2022/03/26 08:09:08;;;;;;;17.25;6.30;;;;;;;6.24;69.29;97183.22;5033905;28;20045;-55
2022/03/26 08:11:34;;;;;;;13.35;5.50;;;;;;;6.23;69.24;97189.28;5033999;28;20072;-54
2022/03/26 08:14:00;;;;;;;16.60;6.68;;;;;;;6.26;69.14;97184.81;5015784;28;20045;-55
2022/03/26 08:16:26;;;;;;;8.90;5.43;;;;;;;6.29;68.17;97143.34;5023487;28;20576;-56
2022/03/26 08:18:51;;;;;;;8.35;4.20;;;;;;;6.43;66.81;97144.31;5021895;28;20583;-53
2022/03/26 08:21:17;;;;;;;7.80;5.25;;;;;;;6.53;66.34;97158.34;5020779;28;20037;-53
2022/03/26 08:23:43;;;;;;;8.38;4.40;;;;;;;6.50;66.95;97169.66;5024863;28;20037;-52
2022/03/26 08:29:07;;;;;;;11.95;6.10;;;;;;;6.30;69.95;97120.97;5015305;28;20418;-56
2022/03/26 08:31:33;;;;;;;12.23;7.05;;;;;;;6.14;72.36;97117.59;5012318;28;20043;-57
2022/03/26 08:34:00;;;;;;;14.00;6.53;;;;;;;6.03;73.14;97120.81;5027006;28;20080;-55
2022/03/26 08:36:26;;;;;;;12.45;7.10;;;;;;;5.92;75.02;97115.41;5024009;28;20128;-55
2022/03/26 08:38:51;;;;;;;11.88;6.43;;;;;;;5.75;73.76;97082.84;5029536;28;20136;-54
2022/03/26 08:41:20;;;;;;;11.18;6.05;;;;;;;5.79;73.80;97111.84;5029091;28;20478;-54
2022/03/26 08:43:48;;;;;;;12.55;7.00;;;;;;;5.85;74.84;97108.94;5024893;28;20092;-55
2022/03/26 08:46:14;;;;;;;13.43;6.93;;;;;;;5.81;75.24;97110.03;5038064;28;20476;-55
2022/03/26 08:48:39;;;;;;;13.40;6.70;;;;;;;5.58;78.18;97095.00;5031057;28;20527;-52
2022/03/26 08:51:05;;;;;;;16.98;7.47;;;;;;;5.37;83.47;97107.34;5009826;28;20045;-55
2022/03/26 08:53:32;;;;;;;18.30;8.95;;;;;;;5.12;87.96;97115.56;5028502;28;20033;-55
2022/03/26 08:55:58;;;;;;;23.80;10.70;;;;;;;5.00;92.83;97099.03;5026764;28;20047;-56
2022/03/26 08:58:25;;;;;;;14.23;7.60;;;;;;;4.83;95.45;97105.97;5028698;28;20051;-54
2022/03/26 09:00:52;;;;;;;13.52;7.18;;;;;;;4.67;97.87;97111.91;5026683;28;20045;-57
2022/03/26 09:03:20;;;;;;;10.60;5.00;;;;;;;4.64;100.00;97100.97;5029572;28;20506;-57
2022/03/26 09:05:49;;;;;;;18.98;7.85;;;;;;;4.49;100.00;97086.31;5028578;28;20045;-55
2022/03/26 09:08:15;;;;;;;15.18;7.85;;;;;;;4.37;100.00;97107.50;5027597;28;20037;-56
2022/03/26 09:10:41;;;;;;;14.43;7.25;;;;;;;4.24;100.00;97113.25;5027522;28;20475;-54
2022/03/26 09:13:06;;;;;;;15.48;7.90;;;;;;;4.09;100.00;97097.78;5029591;28;20044;-56
2022/03/26 09:15:32;;;;;;;18.75;8.82;;;;;;;4.06;100.00;97083.34;5022656;28;20037;-56
2022/03/26 09:17:59;;;;;;;22.90;10.13;;;;;;;4.12;100.00;97077.91;5024916;28;20045;-49
2022/03/26 09:20:26;;;;;;;23.77;10.80;;;;;;;4.14;100.00;97088.94;5046333;28;20041;-50
2022/03/26 09:22:52;;;;;;;13.98;7.60;;;;;;;4.11;100.00;97080.56;5030117;28;20128;-50
2022/03/26 09:25:20;;;;;;;26.88;11.23;;;;;;;3.95;100.00;97041.09;5052624;28;20124;-53
2022/03/26 09:27:47;;;;;;;18.52;8.63;;;;;;;4.08;100.00;97060.16;5014814;28;20040;-51
2022/03/26 09:30:15;;;;;;;20.17;9.63;;;;;;;4.09;100.00;97057.47;4981609;28;20068;-52
2022/03/26 09:32:42;;;;;;;19.60;10.43;;;;;;;4.11;100.00;97047.13;4989069;28;20037;-50
2022/03/26 09:35:08;;;;;;;22.45;9.52;;;;;;;4.07;100.00;97030.22;5006606;28;20041;-51
2022/03/26 09:37:34;;;;;;;24.27;12.00;;;;;;;4.13;100.00;97065.88;5011058;28;20037;-50
2022/03/26 09:40:04;;;;;;;17.55;8.45;;;;;;;4.18;100.00;97056.19;4988009;28;20042;-49
2022/03/26 09:42:33;;;;;;;23.23;10.18;;;;;;;4.12;100.00;97053.94;5022800;28;20497;-53
2022/03/26 09:44:59;;;;;;;16.43;8.03;;;;;;;4.16;100.00;97069.13;5011284;28;20537;-53
2022/03/26 09:47:25;;;;;;;20.15;9.65;;;;;;;4.21;100.00;97058.59;5037765;28;20041;-52
2022/03/26 09:49:51;;;;;;;19.73;8.18;;;;;;;4.25;100.00;97054.97;5048345;28;20044;-52
2022/03/26 09:52:17;;;;;;;20.83;10.30;;;;;;;4.20;100.00;97041.50;5055623;28;20048;-50
2022/03/26 09:54:43;;;;;;;22.88;11.20;;;;;;;4.28;100.00;97067.69;5018120;28;20444;-51
2022/03/26 09:57:09;;;;;;;14.38;7.55;;;;;;;4.19;100.00;97021.84;5023621;28;20545;-51
2022/03/26 09:59:35;;;;;;;18.25;7.78;;;;;;;4.35;100.00;97055.31;5010743;28;20045;-54
2022/03/26 10:02:02;;;;;;;20.60;10.13;;;;;;;4.40;100.00;97046.44;5026166;28;20140;-54
2022/03/26 10:04:41;;;;;;;22.13;11.38;;;;;;;4.44;100.00;97047.97;5028283;28;20421;-54
2022/03/26 10:07:07;;;;;;;21.30;11.02;;;;;;;4.43;100.00;97035.19;5003927;28;20120;-51
2022/03/26 10:09:34;;;;;;;22.10;8.88;;;;;;;4.52;100.00;97050.13;5001642;28;20048;-52
2022/03/26 10:12:00;;;;;;;21.33;10.52;;;;;;;4.71;100.00;97042.28;5022233;28;20128;-55
2022/03/26 10:14:42;;;;;;;12.88;7.38;;;;;;;4.62;100.00;97053.88;5022890;28;20041;-53
2022/03/26 10:17:34;;;;;;;17.90;8.73;;;;;;;4.47;100.00;97019.50;5020573;28;20095;-53
2022/03/26 10:20:10;;;;;;;19.95;8.00;;;;;;;4.46;100.00;97011.88;5027087;28;20052;-55
2022/03/26 10:22:40;;;;;;;24.77;12.32;;;;;;;4.50;100.00;97003.91;5022624;28;20053;-54
2022/03/26 10:25:13;;;;;;;20.80;10.50;;;;;;;4.48;100.00;97003.19;5025541;28;20045;-51
2022/03/26 10:27:42;;;;;;;22.73;9.95;;;;;;;4.51;100.00;96986.72;5022760;28;20083;-51
2022/03/26 10:33:20;;;;;;;18.23;9.10;;;;;;;4.68;100.00;96996.97;5018110;28;20065;-55
2022/03/26 10:35:53;;;;;;;24.77;10.48;;;;;;;4.83;100.00;97015.88;5017735;28;20042;-55
2022/03/26 10:38:19;;;;;;;21.35;11.25;;;;;;;4.96;100.00;96989.41;5021503;28;20693;-54
2022/03/26 10:40:44;;;;;;;23.83;9.77;;;;;;;4.94;100.00;96960.34;5042222;28;20042;-54
2022/03/26 10:43:13;;;;;;;23.92;10.60;;;;;;;5.23;100.00;96957.91;5028219;28;20558;-56
2022/03/26 10:45:50;;;;;;;19.45;11.65;;;;;;;5.30;100.00;96956.63;5028361;28;20143;-51
2022/03/26 10:48:32;;;;;;;22.48;11.27;;;;;;;5.53;100.00;96969.84;5027754;28;20499;-52
2022/03/26 10:51:06;;;;;;;18.52;8.07;;;;;;;5.86;100.00;96961.88;5025811;28;20502;-56
2022/03/26 10:53:39;;;;;;;11.20;6.97;;;;;;;7.10;92.58;96961.13;5030875;28;20034;-51
2022/03/26 10:56:15;;;;;;;17.02;9.52;;;;;;;8.39;81.36;96936.94;5026720;28;20049;-56
2022/03/26 10:58:42;;;;;;;15.15;8.23;;;;;;;9.10;81.04;96938.81;5027338;28;20038;-54
2022/03/26 11:01:08;;;;;;;13.50;7.45;;;;;;;8.97;73.31;96929.41;5024771;28;20196;-53
2022/03/26 11:03:35;;;;;;;11.82;7.47;;;;;;;8.09;75.20;96926.94;5025780;28;20046;-56
2022/03/26 11:06:01;;;;;;;14.70;8.27;;;;;;;7.42;73.79;96914.28;5020795;28;20041;-51
2022/03/26 11:08:34;;;;;;;10.25;5.15;;;;;;;7.05;79.75;97076.00;5041721;28;20045;-52
2022/03/26 11:11:03;;;;;;;3.60;2.33;;;;;;;6.03;79.27;97030.53;5055200;28;20049;-52
2022/03/26 11:13:29;;;;;;;6.55;3.47;;;;;;;5.69;88.90;97048.84;5027637;28;20080;-55
2022/03/26 11:16:00;;;;;;;5.72;3.20;;;;;;;5.61;94.95;97059.59;5011193;28;20045;-56
2022/03/26 11:18:38;;;;;;;7.55;2.67;;;;;;;5.68;96.68;97052.34;5028962;28;20114;-53
2022/03/26 11:21:09;;;;;;;5.20;2.03;;;;;;;5.63;92.73;97059.50;5027996;28;20052;-52
2022/03/26 11:23:51;;;;;;;8.35;2.50;;;;;;;5.49;93.88;97055.97;5025353;28;20096;-56
2022/03/26 11:26:48;;;;;;;4.57;1.45;;;;;;;5.57;83.46;97065.84;5027575;28;20508;-55
2022/03/26 11:29:30;;;;;;;2.95;1.27;;;;;;;5.42;78.38;97064.94;5029188;28;20045;-51
2022/03/26 11:32:09;;;;;;;3.30;1.25;;;;;;;5.38;77.76;97037.72;5028388;28;20120;-54
2022/03/26 11:34:38;;;;;;;3.88;1.27;;;;;;;5.63;88.45;97032.00;5025821;28;20041;-51
2022/03/26 11:37:12;;;;;;;3.95;1.10;;;;;;;6.30;84.62;97048.72;5036671;28;20049;-53
2022/03/26 11:39:49;;;;;;;4.43;1.33;;;;;;;7.06;80.06;97049.25;5014778;28;20099;-52